sensor_id;sensor_type;location;lat;lon;timestamp;P1;durP1;ratioP1;P2;durP2;ratioP2
72501;SDS011;60524;49.874;8.652;2022-10-24T00:00:42;7.17;;;2.10;;
72501;SDS011;60524;49.874;8.652;2022-10-24T00:03:09;4.32;;;1.77;;
72501;SDS011;60524;49.874;8.652;2022-10-24T00:05:40;5.10;;;2.28;;
72501;SDS011;60524;49.874;8.652;2022-10-24T00:08:06;6.90;;;1.92;;
72501;SDS011;60524;49.874;8.652;2022-10-24T00:10:32;7.60;;;1.83;;
72501;SDS011;60524;49.874;8.652;2022-10-24T00:12:57;12.23;;;2.40;;
72501;SDS011;60524;49.874;8.652;2022-10-24T00:15:22;4.37;;;1.87;;
72501;SDS011;60524;49.874;8.652;2022-10-24T00:17:48;3.42;;;1.90;;
72501;SDS011;60524;49.874;8.652;2022-10-24T00:20:13;4.90;;;1.80;;
72501;SDS011;60524;49.874;8.652;2022-10-24T00:22:38;6.73;;;1.60;;
72501;SDS011;60524;49.874;8.652;2022-10-24T00:25:04;9.03;;;2.40;;
72501;SDS011;60524;49.874;8.652;2022-10-24T00:27:30;5.72;;;2.05;;
72501;SDS011;60524;49.874;8.652;2022-10-24T00:29:55;7.13;;;1.83;;
72501;SDS011;60524;49.874;8.652;2022-10-24T00:32:20;6.65;;;2.25;;
72501;SDS011;60524;49.874;8.652;2022-10-24T00:34:46;6.23;;;2.13;;
72501;SDS011;60524;49.874;8.652;2022-10-24T00:37:11;7.23;;;2.27;;
72501;SDS011;60524;49.874;8.652;2022-10-24T00:39:36;10.10;;;2.57;;
72501;SDS011;60524;49.874;8.652;2022-10-24T00:42:02;9.67;;;1.97;;
72501;SDS011;60524;49.874;8.652;2022-10-24T00:44:29;4.22;;;1.85;;
72501;SDS011;60524;49.874;8.652;2022-10-24T00:49:29;8.65;;;2.05;;
72501;SDS011;60524;49.874;8.652;2022-10-24T00:51:59;8.45;;;2.00;;
72501;SDS011;60524;49.874;8.652;2022-10-24T00:54:27;9.85;;;2.15;;
72501;SDS011;60524;49.874;8.652;2022-10-24T00:59:30;7.68;;;1.98;;
72501;SDS011;60524;49.874;8.652;2022-10-24T01:01:57;4.05;;;1.92;;
72501;SDS011;60524;49.874;8.652;2022-10-24T01:04:22;10.60;;;2.40;;
72501;SDS011;60524;49.874;8.652;2022-10-24T01:09:38;6.90;;;2.03;;
72501;SDS011;60524;49.874;8.652;2022-10-24T01:12:30;7.15;;;2.20;;
72501;SDS011;60524;49.874;8.652;2022-10-24T01:15:13;14.15;;;2.40;;
72501;SDS011;60524;49.874;8.652;2022-10-24T01:17:54;9.32;;;2.50;;
72501;SDS011;60524;49.874;8.652;2022-10-24T01:28:25;12.85;;;2.30;;
72501;SDS011;60524;49.874;8.652;2022-10-24T01:30:56;7.07;;;1.92;;
72501;SDS011;60524;49.874;8.652;2022-10-24T01:33:32;9.63;;;2.28;;
72501;SDS011;60524;49.874;8.652;2022-10-24T01:36:07;3.95;;;2.00;;
72501;SDS011;60524;49.874;8.652;2022-10-24T01:41:10;8.23;;;2.65;;
72501;SDS011;60524;49.874;8.652;2022-10-24T01:43:51;8.18;;;2.45;;
72501;SDS011;60524;49.874;8.652;2022-10-24T01:46:18;14.55;;;2.38;;
72501;SDS011;60524;49.874;8.652;2022-10-24T01:48:48;6.03;;;2.22;;
72501;SDS011;60524;49.874;8.652;2022-10-24T01:51:16;6.70;;;2.10;;
72501;SDS011;60524;49.874;8.652;2022-10-24T01:53:43;13.88;;;3.35;;
72501;SDS011;60524;49.874;8.652;2022-10-24T01:56:09;12.27;;;2.38;;
72501;SDS011;60524;49.874;8.652;2022-10-24T01:58:34;6.90;;;2.00;;
72501;SDS011;60524;49.874;8.652;2022-10-24T02:01:00;11.60;;;2.43;;
72501;SDS011;60524;49.874;8.652;2022-10-24T02:03:36;6.93;;;2.63;;
72501;SDS011;60524;49.874;8.652;2022-10-24T02:06:07;7.85;;;2.50;;
72501;SDS011;60524;49.874;8.652;2022-10-24T02:08:39;9.88;;;2.22;;
72501;SDS011;60524;49.874;8.652;2022-10-24T02:11:08;10.35;;;1.95;;
72501;SDS011;60524;49.874;8.652;2022-10-24T02:15:59;9.27;;;2.10;;
72501;SDS011;60524;49.874;8.652;2022-10-24T02:18:25;13.10;;;2.05;;
72501;SDS011;60524;49.874;8.652;2022-10-24T02:20:53;10.18;;;2.38;;
72501;SDS011;60524;49.874;8.652;2022-10-24T02:23:26;14.35;;;2.13;;
72501;SDS011;60524;49.874;8.652;2022-10-24T02:25:55;11.05;;;3.00;;
72501;SDS011;60524;49.874;8.652;2022-10-24T02:30:53;9.50;;;1.97;;
72501;SDS011;60524;49.874;8.652;2022-10-24T02:33:21;9.95;;;1.60;;
72501;SDS011;60524;49.874;8.652;2022-10-24T02:35:47;7.97;;;1.50;;
72501;SDS011;60524;49.874;8.652;2022-10-24T02:38:18;8.15;;;2.13;;
72501;SDS011;60524;49.874;8.652;2022-10-24T02:40:46;10.52;;;2.08;;
72501;SDS011;60524;49.874;8.652;2022-10-24T02:43:12;10.35;;;2.30;;
72501;SDS011;60524;49.874;8.652;2022-10-24T02:45:38;13.10;;;1.90;;
72501;SDS011;60524;49.874;8.652;2022-10-24T02:48:05;9.45;;;1.60;;
72501;SDS011;60524;49.874;8.652;2022-10-24T02:50:34;6.28;;;1.70;;
72501;SDS011;60524;49.874;8.652;2022-10-24T02:53:00;6.53;;;2.10;;
72501;SDS011;60524;49.874;8.652;2022-10-24T02:55:25;7.80;;;1.67;;
72501;SDS011;60524;49.874;8.652;2022-10-24T02:57:51;7.47;;;1.83;;
72501;SDS011;60524;49.874;8.652;2022-10-24T03:00:16;6.03;;;1.50;;
72501;SDS011;60524;49.874;8.652;2022-10-24T03:02:42;9.50;;;1.40;;
72501;SDS011;60524;49.874;8.652;2022-10-24T03:05:08;9.52;;;2.22;;
72501;SDS011;60524;49.874;8.652;2022-10-24T03:07:33;11.27;;;1.52;;
72501;SDS011;60524;49.874;8.652;2022-10-24T03:09:58;4.37;;;1.13;;
72501;SDS011;60524;49.874;8.652;2022-10-24T03:12:24;4.30;;;1.30;;
72501;SDS011;60524;49.874;8.652;2022-10-24T03:14:50;8.75;;;1.20;;
72501;SDS011;60524;49.874;8.652;2022-10-24T03:17:16;14.55;;;1.67;;
72501;SDS011;60524;49.874;8.652;2022-10-24T03:19:41;6.53;;;1.20;;
72501;SDS011;60524;49.874;8.652;2022-10-24T03:22:09;8.52;;;2.05;;
72501;SDS011;60524;49.874;8.652;2022-10-24T03:24:34;5.93;;;1.43;;
72501;SDS011;60524;49.874;8.652;2022-10-24T03:26:59;4.63;;;1.60;;
72501;SDS011;60524;49.874;8.652;2022-10-24T03:29:25;7.20;;;1.30;;
72501;SDS011;60524;49.874;8.652;2022-10-24T03:31:51;5.70;;;1.35;;
72501;SDS011;60524;49.874;8.652;2022-10-24T03:34:16;3.35;;;1.00;;
72501;SDS011;60524;49.874;8.652;2022-10-24T03:36:42;7.28;;;1.50;;
72501;SDS011;60524;49.874;8.652;2022-10-24T03:39:08;7.75;;;1.35;;
72501;SDS011;60524;49.874;8.652;2022-10-24T03:41:34;8.57;;;1.50;;
72501;SDS011;60524;49.874;8.652;2022-10-24T03:44:00;3.78;;;1.40;;
72501;SDS011;60524;49.874;8.652;2022-10-24T03:46:26;7.13;;;1.25;;
72501;SDS011;60524;49.874;8.652;2022-10-24T03:48:51;11.17;;;1.57;;
72501;SDS011;60524;49.874;8.652;2022-10-24T03:51:16;7.00;;;1.73;;
72501;SDS011;60524;49.874;8.652;2022-10-24T03:53:42;6.17;;;1.20;;
72501;SDS011;60524;49.874;8.652;2022-10-24T03:56:07;10.83;;;1.67;;
72501;SDS011;60524;49.874;8.652;2022-10-24T03:58:32;7.03;;;1.57;;
72501;SDS011;60524;49.874;8.652;2022-10-24T04:00:58;6.07;;;1.37;;
72501;SDS011;60524;49.874;8.652;2022-10-24T04:03:24;4.35;;;1.10;;
72501;SDS011;60524;49.874;8.652;2022-10-24T04:05:50;3.60;;;1.20;;
72501;SDS011;60524;49.874;8.652;2022-10-24T04:08:18;13.77;;;2.38;;
72501;SDS011;60524;49.874;8.652;2022-10-24T04:10:43;6.33;;;1.30;;
72501;SDS011;60524;49.874;8.652;2022-10-24T04:13:08;8.70;;;1.53;;
72501;SDS011;60524;49.874;8.652;2022-10-24T04:15:34;5.50;;;1.30;;
72501;SDS011;60524;49.874;8.652;2022-10-24T04:17:59;6.93;;;1.20;;
72501;SDS011;60524;49.874;8.652;2022-10-24T04:20:24;9.40;;;1.20;;
72501;SDS011;60524;49.874;8.652;2022-10-24T04:22:50;7.87;;;1.50;;
72501;SDS011;60524;49.874;8.652;2022-10-24T04:25:15;8.30;;;1.90;;
72501;SDS011;60524;49.874;8.652;2022-10-24T04:27:41;6.63;;;1.30;;
72501;SDS011;60524;49.874;8.652;2022-10-24T04:30:07;7.57;;;1.30;;
72501;SDS011;60524;49.874;8.652;2022-10-24T04:32:34;6.75;;;1.48;;
72501;SDS011;60524;49.874;8.652;2022-10-24T04:35:00;7.60;;;1.60;;
72501;SDS011;60524;49.874;8.652;2022-10-24T04:37:25;10.30;;;1.90;;
72501;SDS011;60524;49.874;8.652;2022-10-24T04:39:51;8.20;;;2.37;;
72501;SDS011;60524;49.874;8.652;2022-10-24T04:42:18;9.43;;;1.38;;
72501;SDS011;60524;49.874;8.652;2022-10-24T04:44:44;12.52;;;1.70;;
72501;SDS011;60524;49.874;8.652;2022-10-24T04:47:09;4.23;;;1.40;;
72501;SDS011;60524;49.874;8.652;2022-10-24T04:49:35;11.43;;;1.77;;
72501;SDS011;60524;49.874;8.652;2022-10-24T04:52:00;6.43;;;1.27;;
72501;SDS011;60524;49.874;8.652;2022-10-24T04:54:25;9.73;;;2.27;;
72501;SDS011;60524;49.874;8.652;2022-10-24T04:56:50;10.23;;;1.90;;
72501;SDS011;60524;49.874;8.652;2022-10-24T04:59:16;11.53;;;1.50;;
72501;SDS011;60524;49.874;8.652;2022-10-24T05:01:41;9.50;;;1.53;;
72501;SDS011;60524;49.874;8.652;2022-10-24T05:04:06;6.20;;;2.13;;
72501;SDS011;60524;49.874;8.652;2022-10-24T05:06:32;5.05;;;1.30;;
72501;SDS011;60524;49.874;8.652;2022-10-24T05:08:57;8.75;;;1.70;;
72501;SDS011;60524;49.874;8.652;2022-10-24T05:11:23;9.17;;;1.97;;
72501;SDS011;60524;49.874;8.652;2022-10-24T05:13:48;10.73;;;2.40;;
72501;SDS011;60524;49.874;8.652;2022-10-24T05:16:13;7.50;;;1.60;;
72501;SDS011;60524;49.874;8.652;2022-10-24T05:18:39;10.20;;;1.73;;
72501;SDS011;60524;49.874;8.652;2022-10-24T05:21:04;11.77;;;2.10;;
72501;SDS011;60524;49.874;8.652;2022-10-24T05:23:30;10.03;;;1.70;;
72501;SDS011;60524;49.874;8.652;2022-10-24T05:25:55;8.27;;;1.53;;
72501;SDS011;60524;49.874;8.652;2022-10-24T05:28:20;8.33;;;1.97;;
72501;SDS011;60524;49.874;8.652;2022-10-24T05:30:46;6.77;;;1.63;;
72501;SDS011;60524;49.874;8.652;2022-10-24T05:33:11;11.27;;;1.70;;
72501;SDS011;60524;49.874;8.652;2022-10-24T05:35:36;6.40;;;1.80;;
72501;SDS011;60524;49.874;8.652;2022-10-24T05:38:02;6.20;;;1.42;;
72501;SDS011;60524;49.874;8.652;2022-10-24T05:40:28;6.60;;;1.48;;
72501;SDS011;60524;49.874;8.652;2022-10-24T05:42:53;11.88;;;2.25;;
72501;SDS011;60524;49.874;8.652;2022-10-24T05:45:19;11.50;;;1.87;;
72501;SDS011;60524;49.874;8.652;2022-10-24T05:47:45;10.30;;;1.85;;
72501;SDS011;60524;49.874;8.652;2022-10-24T05:50:10;8.17;;;2.10;;
72501;SDS011;60524;49.874;8.652;2022-10-24T05:52:36;7.65;;;1.75;;
72501;SDS011;60524;49.874;8.652;2022-10-24T05:55:05;7.50;;;1.63;;
72501;SDS011;60524;49.874;8.652;2022-10-24T05:57:31;9.27;;;1.80;;
72501;SDS011;60524;49.874;8.652;2022-10-24T05:59:56;5.35;;;2.05;;
72501;SDS011;60524;49.874;8.652;2022-10-24T06:02:22;9.48;;;1.98;;
72501;SDS011;60524;49.874;8.652;2022-10-24T06:04:47;9.17;;;1.80;;
72501;SDS011;60524;49.874;8.652;2022-10-24T06:07:14;13.85;;;2.45;;
72501;SDS011;60524;49.874;8.652;2022-10-24T06:09:40;12.73;;;1.50;;
72501;SDS011;60524;49.874;8.652;2022-10-24T06:12:06;12.40;;;2.00;;
72501;SDS011;60524;49.874;8.652;2022-10-24T06:14:35;3.95;;;1.58;;
72501;SDS011;60524;49.874;8.652;2022-10-24T06:17:01;10.05;;;1.60;;
72501;SDS011;60524;49.874;8.652;2022-10-24T06:24:20;11.15;;;2.72;;
72501;SDS011;60524;49.874;8.652;2022-10-24T06:26:51;12.55;;;1.67;;
72501;SDS011;60524;49.874;8.652;2022-10-24T08:56:25;8.63;;;2.28;;
72501;SDS011;60524;49.874;8.652;2022-10-24T08:58:52;7.10;;;1.80;;
72501;SDS011;60524;49.874;8.652;2022-10-24T09:01:20;11.68;;;1.88;;
72501;SDS011;60524;49.874;8.652;2022-10-24T09:03:53;5.68;;;1.55;;
72501;SDS011;60524;49.874;8.652;2022-10-24T09:06:22;11.60;;;2.45;;
72501;SDS011;60524;49.874;8.652;2022-10-24T09:08:56;5.95;;;1.92;;
72501;SDS011;60524;49.874;8.652;2022-10-24T09:13:54;8.70;;;1.88;;
72501;SDS011;60524;49.874;8.652;2022-10-24T09:16:20;10.65;;;1.73;;
72501;SDS011;60524;49.874;8.652;2022-10-24T09:23:38;5.40;;;1.70;;
72501;SDS011;60524;49.874;8.652;2022-10-24T09:26:04;10.10;;;1.70;;
72501;SDS011;60524;49.874;8.652;2022-10-24T09:28:33;8.75;;;1.60;;
72501;SDS011;60524;49.874;8.652;2022-10-24T09:31:12;11.60;;;2.83;;
72501;SDS011;60524;49.874;8.652;2022-10-24T09:33:40;14.05;;;1.52;;
72501;SDS011;60524;49.874;8.652;2022-10-24T09:36:14;6.25;;;2.00;;
72501;SDS011;60524;49.874;8.652;2022-10-24T09:38:42;5.63;;;1.48;;
72501;SDS011;60524;49.874;8.652;2022-10-24T09:41:23;11.98;;;1.65;;
72501;SDS011;60524;49.874;8.652;2022-10-24T09:43:51;8.63;;;1.92;;
72501;SDS011;60524;49.874;8.652;2022-10-24T09:51:42;8.05;;;2.00;;
72501;SDS011;60524;49.874;8.652;2022-10-24T09:56:44;9.60;;;2.15;;
72501;SDS011;60524;49.874;8.652;2022-10-24T10:01:43;4.88;;;1.48;;
72501;SDS011;60524;49.874;8.652;2022-10-24T10:04:14;7.50;;;1.90;;
72501;SDS011;60524;49.874;8.652;2022-10-24T10:06:48;10.15;;;1.90;;
72501;SDS011;60524;49.874;8.652;2022-10-24T10:09:18;8.43;;;1.63;;
72501;SDS011;60524;49.874;8.652;2022-10-24T10:11:56;12.30;;;2.03;;
72501;SDS011;60524;49.874;8.652;2022-10-24T10:14:23;6.70;;;2.10;;
72501;SDS011;60524;49.874;8.652;2022-10-24T10:17:00;13.05;;;2.10;;
72501;SDS011;60524;49.874;8.652;2022-10-24T10:19:26;9.70;;;2.63;;
72501;SDS011;60524;49.874;8.652;2022-10-24T10:22:01;10.70;;;2.22;;
72501;SDS011;60524;49.874;8.652;2022-10-24T10:26:59;6.82;;;2.08;;
72501;SDS011;60524;49.874;8.652;2022-10-24T10:29:25;9.63;;;2.08;;
72501;SDS011;60524;49.874;8.652;2022-10-24T10:31:59;6.22;;;1.95;;
72501;SDS011;60524;49.874;8.652;2022-10-24T10:37:31;12.43;;;3.22;;
72501;SDS011;60524;49.874;8.652;2022-10-24T10:50:29;5.85;;;1.95;;
72501;SDS011;60524;49.874;8.652;2022-10-24T10:53:03;5.45;;;1.63;;
72501;SDS011;60524;49.874;8.652;2022-10-24T10:55:41;6.57;;;1.42;;
72501;SDS011;60524;49.874;8.652;2022-10-24T10:58:21;4.20;;;1.38;;
72501;SDS011;60524;49.874;8.652;2022-10-24T11:11:33;7.70;;;1.40;;
72501;SDS011;60524;49.874;8.652;2022-10-24T11:16:30;6.20;;;1.50;;
72501;SDS011;60524;49.874;8.652;2022-10-24T11:18:58;9.20;;;1.85;;
72501;SDS011;60524;49.874;8.652;2022-10-24T11:21:25;10.27;;;1.70;;
72501;SDS011;60524;49.874;8.652;2022-10-24T11:23:56;5.60;;;1.60;;
72501;SDS011;60524;49.874;8.652;2022-10-24T11:26:30;5.72;;;1.90;;
72501;SDS011;60524;49.874;8.652;2022-10-24T11:31:27;8.13;;;2.60;;
72501;SDS011;60524;49.874;8.652;2022-10-24T11:39:29;5.57;;;1.75;;
72501;SDS011;60524;49.874;8.652;2022-10-24T11:42:03;14.05;;;1.83;;
72501;SDS011;60524;49.874;8.652;2022-10-24T11:47:12;8.93;;;2.50;;
72501;SDS011;60524;49.874;8.652;2022-10-24T11:49:57;7.30;;;1.77;;
72501;SDS011;60524;49.874;8.652;2022-10-24T11:52:28;11.85;;;1.92;;
72501;SDS011;60524;49.874;8.652;2022-10-24T11:55:00;4.63;;;1.50;;
72501;SDS011;60524;49.874;8.652;2022-10-24T11:57:31;9.13;;;2.10;;
72501;SDS011;60524;49.874;8.652;2022-10-24T11:59:58;9.68;;;1.80;;
72501;SDS011;60524;49.874;8.652;2022-10-24T12:08:49;17.13;;;3.20;;
72501;SDS011;60524;49.874;8.652;2022-10-24T12:19:40;4.85;;;1.48;;
72501;SDS011;60524;49.874;8.652;2022-10-24T12:22:10;7.28;;;1.63;;
72501;SDS011;60524;49.874;8.652;2022-10-24T12:24:40;12.45;;;2.13;;
72501;SDS011;60524;49.874;8.652;2022-10-24T12:27:07;9.97;;;2.27;;
72501;SDS011;60524;49.874;8.652;2022-10-24T12:29:45;7.80;;;2.00;;
72501;SDS011;60524;49.874;8.652;2022-10-24T12:32:46;8.13;;;2.20;;
72501;SDS011;60524;49.874;8.652;2022-10-24T12:37:50;10.15;;;1.85;;
72501;SDS011;60524;49.874;8.652;2022-10-24T12:56:30;10.05;;;2.17;;
72501;SDS011;60524;49.874;8.652;2022-10-24T12:59:00;7.63;;;2.20;;
72501;SDS011;60524;49.874;8.652;2022-10-24T13:01:28;11.90;;;2.00;;
72501;SDS011;60524;49.874;8.652;2022-10-24T13:04:07;10.50;;;2.42;;
72501;SDS011;60524;49.874;8.652;2022-10-24T13:07:06;10.57;;;1.98;;
72501;SDS011;60524;49.874;8.652;2022-10-24T13:10:00;10.13;;;2.88;;
72501;SDS011;60524;49.874;8.652;2022-10-24T13:20:44;7.38;;;1.83;;
72501;SDS011;60524;49.874;8.652;2022-10-24T13:23:12;9.20;;;2.05;;
72501;SDS011;60524;49.874;8.652;2022-10-24T13:25:41;7.65;;;2.08;;
72501;SDS011;60524;49.874;8.652;2022-10-24T13:30:43;10.90;;;2.10;;
72501;SDS011;60524;49.874;8.652;2022-10-24T13:36:18;7.68;;;2.17;;
72501;SDS011;60524;49.874;8.652;2022-10-24T13:41:32;7.50;;;1.65;;
72501;SDS011;60524;49.874;8.652;2022-10-24T13:44:01;6.93;;;1.52;;
72501;SDS011;60524;49.874;8.652;2022-10-24T13:46:36;8.65;;;1.80;;
72501;SDS011;60524;49.874;8.652;2022-10-24T13:49:05;5.90;;;1.40;;
72501;SDS011;60524;49.874;8.652;2022-10-24T13:51:40;11.07;;;1.85;;
72501;SDS011;60524;49.874;8.652;2022-10-24T13:56:47;11.88;;;1.70;;
72501;SDS011;60524;49.874;8.652;2022-10-24T13:59:32;4.78;;;1.40;;
72501;SDS011;60524;49.874;8.652;2022-10-24T14:01:59;5.50;;;1.20;;
72501;SDS011;60524;49.874;8.652;2022-10-24T14:04:27;5.15;;;0.95;;
72501;SDS011;60524;49.874;8.652;2022-10-24T14:06:58;3.78;;;0.95;;
72501;SDS011;60524;49.874;8.652;2022-10-24T14:09:25;5.03;;;0.98;;
72501;SDS011;60524;49.874;8.652;2022-10-24T14:11:50;8.73;;;1.10;;
72501;SDS011;60524;49.874;8.652;2022-10-24T14:17:04;4.88;;;1.40;;
72501;SDS011;60524;49.874;8.652;2022-10-24T14:19:46;6.50;;;1.13;;
72501;SDS011;60524;49.874;8.652;2022-10-24T14:22:20;6.25;;;1.38;;
72501;SDS011;60524;49.874;8.652;2022-10-24T14:24:48;5.80;;;1.10;;
72501;SDS011;60524;49.874;8.652;2022-10-24T14:27:14;5.68;;;1.50;;
72501;SDS011;60524;49.874;8.652;2022-10-24T14:29:48;5.57;;;1.38;;
72501;SDS011;60524;49.874;8.652;2022-10-24T14:32:15;2.35;;;1.05;;
72501;SDS011;60524;49.874;8.652;2022-10-24T14:34:40;4.77;;;1.30;;
72501;SDS011;60524;49.874;8.652;2022-10-24T14:37:07;10.52;;;1.42;;
72501;SDS011;60524;49.874;8.652;2022-10-24T14:39:36;8.23;;;1.02;;
72501;SDS011;60524;49.874;8.652;2022-10-24T14:42:02;7.88;;;1.40;;
72501;SDS011;60524;49.874;8.652;2022-10-24T14:44:28;4.57;;;1.15;;
72501;SDS011;60524;49.874;8.652;2022-10-24T14:47:03;8.02;;;1.15;;
72501;SDS011;60524;49.874;8.652;2022-10-24T14:49:40;2.45;;;1.02;;
72501;SDS011;60524;49.874;8.652;2022-10-24T14:52:07;3.60;;;1.10;;
72501;SDS011;60524;49.874;8.652;2022-10-24T14:54:43;6.10;;;1.02;;
72501;SDS011;60524;49.874;8.652;2022-10-24T14:57:18;5.10;;;1.23;;
72501;SDS011;60524;49.874;8.652;2022-10-24T14:59:45;7.03;;;1.17;;
72501;SDS011;60524;49.874;8.652;2022-10-24T15:04:52;6.28;;;1.10;;
72501;SDS011;60524;49.874;8.652;2022-10-24T15:07:51;4.68;;;1.23;;
72501;SDS011;60524;49.874;8.652;2022-10-24T15:12:46;4.70;;;1.58;;
72501;SDS011;60524;49.874;8.652;2022-10-24T15:15:26;4.03;;;0.90;;
72501;SDS011;60524;49.874;8.652;2022-10-24T15:20:31;2.78;;;0.82;;
72501;SDS011;60524;49.874;8.652;2022-10-24T15:22:57;6.28;;;0.90;;
72501;SDS011;60524;49.874;8.652;2022-10-24T15:25:33;4.60;;;1.20;;
72501;SDS011;60524;49.874;8.652;2022-10-24T15:28:01;4.68;;;0.93;;
72501;SDS011;60524;49.874;8.652;2022-10-24T15:32:55;6.05;;;1.02;;
72501;SDS011;60524;49.874;8.652;2022-10-24T15:35:22;1.67;;;0.93;;
72501;SDS011;60524;49.874;8.652;2022-10-24T15:38:29;5.70;;;0.82;;
72501;SDS011;60524;49.874;8.652;2022-10-24T15:40:37;9.00;;;1.33;;
72501;SDS011;60524;49.874;8.652;2022-10-24T15:43:08;5.18;;;1.58;;
72501;SDS011;60524;49.874;8.652;2022-10-24T15:45:35;5.50;;;1.25;;
72501;SDS011;60524;49.874;8.652;2022-10-24T15:48:01;5.17;;;1.53;;
72501;SDS011;60524;49.874;8.652;2022-10-24T15:50:26;7.30;;;1.97;;
72501;SDS011;60524;49.874;8.652;2022-10-24T15:52:52;9.43;;;1.80;;
72501;SDS011;60524;49.874;8.652;2022-10-24T15:55:20;3.72;;;1.20;;
72501;SDS011;60524;49.874;8.652;2022-10-24T15:57:47;4.53;;;1.77;;
72501;SDS011;60524;49.874;8.652;2022-10-24T16:00:14;6.95;;;1.85;;
72501;SDS011;60524;49.874;8.652;2022-10-24T16:02:40;3.55;;;0.90;;
72501;SDS011;60524;49.874;8.652;2022-10-24T16:05:12;3.63;;;1.15;;
72501;SDS011;60524;49.874;8.652;2022-10-24T16:07:38;4.75;;;0.82;;
72501;SDS011;60524;49.874;8.652;2022-10-24T16:10:03;1.30;;;0.70;;
72501;SDS011;60524;49.874;8.652;2022-10-24T16:12:29;2.90;;;0.80;;
72501;SDS011;60524;49.874;8.652;2022-10-24T16:14:54;3.63;;;0.80;;
72501;SDS011;60524;49.874;8.652;2022-10-24T16:17:20;2.53;;;0.87;;
72501;SDS011;60524;49.874;8.652;2022-10-24T16:19:45;2.67;;;0.80;;
72501;SDS011;60524;49.874;8.652;2022-10-24T16:22:10;4.37;;;0.80;;
72501;SDS011;60524;49.874;8.652;2022-10-24T16:24:35;5.63;;;1.10;;
72501;SDS011;60524;49.874;8.652;2022-10-24T16:27:01;4.67;;;0.90;;
72501;SDS011;60524;49.874;8.652;2022-10-24T16:29:26;5.13;;;1.00;;
72501;SDS011;60524;49.874;8.652;2022-10-24T16:31:51;7.27;;;0.90;;
72501;SDS011;60524;49.874;8.652;2022-10-24T16:34:17;6.33;;;1.13;;
72501;SDS011;60524;49.874;8.652;2022-10-24T16:36:42;3.85;;;1.08;;
72501;SDS011;60524;49.874;8.652;2022-10-24T16:39:08;5.13;;;1.00;;
72501;SDS011;60524;49.874;8.652;2022-10-24T16:41:33;5.88;;;1.50;;
72501;SDS011;60524;49.874;8.652;2022-10-24T16:43:58;3.93;;;1.50;;
72501;SDS011;60524;49.874;8.652;2022-10-24T16:46:24;4.37;;;1.77;;
72501;SDS011;60524;49.874;8.652;2022-10-24T16:48:51;4.63;;;1.45;;
72501;SDS011;60524;49.874;8.652;2022-10-24T16:51:18;6.47;;;1.60;;
72501;SDS011;60524;49.874;8.652;2022-10-24T16:53:48;2.92;;;1.20;;
72501;SDS011;60524;49.874;8.652;2022-10-24T16:56:14;3.87;;;1.30;;
72501;SDS011;60524;49.874;8.652;2022-10-24T16:58:40;4.80;;;1.40;;
72501;SDS011;60524;49.874;8.652;2022-10-24T17:01:06;5.47;;;1.30;;
72501;SDS011;60524;49.874;8.652;2022-10-24T17:03:34;5.47;;;1.52;;
72501;SDS011;60524;49.874;8.652;2022-10-24T17:05:59;6.90;;;1.80;;
72501;SDS011;60524;49.874;8.652;2022-10-24T17:08:25;5.90;;;1.60;;
72501;SDS011;60524;49.874;8.652;2022-10-24T17:10:52;8.35;;;1.42;;
72501;SDS011;60524;49.874;8.652;2022-10-24T17:13:18;7.03;;;1.77;;
72501;SDS011;60524;49.874;8.652;2022-10-24T17:15:43;6.35;;;1.10;;
72501;SDS011;60524;49.874;8.652;2022-10-24T17:18:09;6.40;;;2.05;;
72501;SDS011;60524;49.874;8.652;2022-10-24T17:20:34;6.13;;;1.47;;
72501;SDS011;60524;49.874;8.652;2022-10-24T17:22:59;6.17;;;1.40;;
72501;SDS011;60524;49.874;8.652;2022-10-24T17:25:26;5.53;;;1.70;;
72501;SDS011;60524;49.874;8.652;2022-10-24T17:27:52;9.75;;;2.30;;
72501;SDS011;60524;49.874;8.652;2022-10-24T17:30:22;14.00;;;2.88;;
72501;SDS011;60524;49.874;8.652;2022-10-24T17:32:49;14.48;;;5.10;;
72501;SDS011;60524;49.874;8.652;2022-10-24T17:35:15;16.73;;;5.43;;
72501;SDS011;60524;49.874;8.652;2022-10-24T17:40:22;17.20;;;6.72;;
72501;SDS011;60524;49.874;8.652;2022-10-24T17:42:49;12.27;;;3.92;;
72501;SDS011;60524;49.874;8.652;2022-10-24T17:45:16;6.93;;;2.85;;
72501;SDS011;60524;49.874;8.652;2022-10-24T17:47:46;6.50;;;2.53;;
72501;SDS011;60524;49.874;8.652;2022-10-24T17:50:12;10.32;;;2.28;;
72501;SDS011;60524;49.874;8.652;2022-10-24T17:52:38;8.82;;;2.83;;
72501;SDS011;60524;49.874;8.652;2022-10-24T17:57:51;9.90;;;2.90;;
72501;SDS011;60524;49.874;8.652;2022-10-24T18:00:17;7.07;;;2.08;;
72501;SDS011;60524;49.874;8.652;2022-10-24T18:02:46;8.73;;;1.90;;
72501;SDS011;60524;49.874;8.652;2022-10-24T18:05:15;5.85;;;1.90;;
72501;SDS011;60524;49.874;8.652;2022-10-24T18:07:42;7.10;;;1.67;;
72501;SDS011;60524;49.874;8.652;2022-10-24T18:10:08;8.82;;;2.03;;
72501;SDS011;60524;49.874;8.652;2022-10-24T18:12:34;6.03;;;2.90;;
72501;SDS011;60524;49.874;8.652;2022-10-24T18:15:02;15.20;;;4.90;;
72501;SDS011;60524;49.874;8.652;2022-10-24T18:17:31;15.98;;;3.65;;
72501;SDS011;60524;49.874;8.652;2022-10-24T18:19:56;9.35;;;2.63;;
72501;SDS011;60524;49.874;8.652;2022-10-24T18:22:22;11.68;;;2.88;;
72501;SDS011;60524;49.874;8.652;2022-10-24T18:24:47;12.57;;;3.30;;
72501;SDS011;60524;49.874;8.652;2022-10-24T18:27:12;10.13;;;2.63;;
72501;SDS011;60524;49.874;8.652;2022-10-24T18:29:38;12.60;;;2.70;;
72501;SDS011;60524;49.874;8.652;2022-10-24T18:32:03;8.30;;;2.80;;
72501;SDS011;60524;49.874;8.652;2022-10-24T18:34:29;10.25;;;2.45;;
72501;SDS011;60524;49.874;8.652;2022-10-24T18:36:54;6.27;;;2.43;;
72501;SDS011;60524;49.874;8.652;2022-10-24T18:39:19;7.77;;;2.27;;
72501;SDS011;60524;49.874;8.652;2022-10-24T18:41:48;11.10;;;3.47;;
72501;SDS011;60524;49.874;8.652;2022-10-24T18:46:47;12.07;;;3.17;;
72501;SDS011;60524;49.874;8.652;2022-10-24T18:49:14;11.45;;;3.42;;
72501;SDS011;60524;49.874;8.652;2022-10-24T18:51:40;8.77;;;3.28;;
72501;SDS011;60524;49.874;8.652;2022-10-24T18:54:12;11.13;;;3.45;;
72501;SDS011;60524;49.874;8.652;2022-10-24T18:56:38;9.48;;;2.60;;
72501;SDS011;60524;49.874;8.652;2022-10-24T18:59:09;15.18;;;2.90;;
72501;SDS011;60524;49.874;8.652;2022-10-24T19:04:39;10.65;;;3.50;;
72501;SDS011;60524;49.874;8.652;2022-10-24T19:07:06;13.25;;;3.30;;
72501;SDS011;60524;49.874;8.652;2022-10-24T19:09:33;12.93;;;2.50;;
72501;SDS011;60524;49.874;8.652;2022-10-24T19:11:58;11.30;;;2.63;;
72501;SDS011;60524;49.874;8.652;2022-10-24T19:14:23;8.27;;;1.80;;
72501;SDS011;60524;49.874;8.652;2022-10-24T19:16:49;10.70;;;2.70;;
72501;SDS011;60524;49.874;8.652;2022-10-24T19:19:18;10.52;;;2.70;;
72501;SDS011;60524;49.874;8.652;2022-10-24T19:21:49;8.27;;;3.10;;
72501;SDS011;60524;49.874;8.652;2022-10-24T19:24:14;10.90;;;3.27;;
72501;SDS011;60524;49.874;8.652;2022-10-24T19:26:39;16.57;;;5.10;;
72501;SDS011;60524;49.874;8.652;2022-10-24T19:29:05;14.07;;;4.90;;
72501;SDS011;60524;49.874;8.652;2022-10-24T19:31:30;14.93;;;4.53;;
72501;SDS011;60524;49.874;8.652;2022-10-24T19:33:55;12.83;;;4.03;;
72501;SDS011;60524;49.874;8.652;2022-10-24T19:36:20;13.80;;;3.40;;
72501;SDS011;60524;49.874;8.652;2022-10-24T19:38:46;8.70;;;3.00;;
72501;SDS011;60524;49.874;8.652;2022-10-24T19:41:11;6.50;;;2.60;;
72501;SDS011;60524;49.874;8.652;2022-10-24T19:43:36;11.57;;;3.10;;
72501;SDS011;60524;49.874;8.652;2022-10-24T19:46:03;9.80;;;3.43;;
72501;SDS011;60524;49.874;8.652;2022-10-24T19:48:30;6.40;;;2.42;;
72501;SDS011;60524;49.874;8.652;2022-10-24T19:51:08;5.82;;;2.55;;
72501;SDS011;60524;49.874;8.652;2022-10-24T19:53:36;10.77;;;3.38;;
72501;SDS011;60524;49.874;8.652;2022-10-24T19:56:04;8.85;;;3.67;;
72501;SDS011;60524;49.874;8.652;2022-10-24T19:58:34;7.82;;;2.63;;